sensor_id;sensor_type;location;lat;lon;timestamp;P1;durP1;ratioP1;P2;durP2;ratioP2
72464;SDS011;60471;52.150;4.508;2023-04-24T00:00:41;10.15;;;2.15;;
72464;SDS011;60471;52.150;4.508;2023-04-24T00:03:07;10.77;;;2.72;;
72464;SDS011;60471;52.150;4.508;2023-04-24T00:05:33;11.48;;;2.92;;
72464;SDS011;60471;52.150;4.508;2023-04-24T00:07:59;8.45;;;2.45;;
72464;SDS011;60471;52.150;4.508;2023-04-24T00:10:26;12.70;;;2.80;;
72464;SDS011;60471;52.150;4.508;2023-04-24T00:12:52;8.55;;;2.33;;
72464;SDS011;60471;52.150;4.508;2023-04-24T00:15:18;11.48;;;2.38;;
72464;SDS011;60471;52.150;4.508;2023-04-24T00:17:44;12.57;;;3.05;;
72464;SDS011;60471;52.150;4.508;2023-04-24T00:20:11;12.30;;;2.30;;
72464;SDS011;60471;52.150;4.508;2023-04-24T00:22:38;12.82;;;2.97;;
72464;SDS011;60471;52.150;4.508;2023-04-24T00:25:07;11.55;;;2.58;;
72464;SDS011;60471;52.150;4.508;2023-04-24T00:27:34;16.20;;;2.67;;
72464;SDS011;60471;52.150;4.508;2023-04-24T00:30:02;11.48;;;2.40;;
72464;SDS011;60471;52.150;4.508;2023-04-24T00:32:29;14.85;;;2.47;;
72464;SDS011;60471;52.150;4.508;2023-04-24T00:34:55;7.75;;;2.42;;
72464;SDS011;60471;52.150;4.508;2023-04-24T00:37:22;10.48;;;2.35;;
72464;SDS011;60471;52.150;4.508;2023-04-24T00:39:48;10.35;;;2.67;;
72464;SDS011;60471;52.150;4.508;2023-04-24T00:42:14;13.85;;;2.13;;
72464;SDS011;60471;52.150;4.508;2023-04-24T00:44:40;8.65;;;2.17;;
72464;SDS011;60471;52.150;4.508;2023-04-24T00:47:07;9.38;;;2.22;;
72464;SDS011;60471;52.150;4.508;2023-04-24T00:49:33;8.52;;;2.25;;
72464;SDS011;60471;52.150;4.508;2023-04-24T00:51:59;12.52;;;2.60;;
72464;SDS011;60471;52.150;4.508;2023-04-24T00:54:25;13.00;;;2.05;;
72464;SDS011;60471;52.150;4.508;2023-04-24T00:56:51;11.73;;;1.80;;
72464;SDS011;60471;52.150;4.508;2023-04-24T00:59:18;11.43;;;2.10;;
72464;SDS011;60471;52.150;4.508;2023-04-24T01:01:44;12.48;;;2.05;;
72464;SDS011;60471;52.150;4.508;2023-04-24T01:04:11;10.85;;;2.05;;
72464;SDS011;60471;52.150;4.508;2023-04-24T01:06:40;9.93;;;2.22;;
72464;SDS011;60471;52.150;4.508;2023-04-24T01:09:08;10.93;;;2.10;;
72464;SDS011;60471;52.150;4.508;2023-04-24T01:11:37;12.50;;;1.90;;
72464;SDS011;60471;52.150;4.508;2023-04-24T01:14:03;11.55;;;2.10;;
72464;SDS011;60471;52.150;4.508;2023-04-24T01:16:30;10.85;;;1.95;;
72464;SDS011;60471;52.150;4.508;2023-04-24T01:18:56;11.27;;;2.05;;
72464;SDS011;60471;52.150;4.508;2023-04-24T01:21:22;7.50;;;2.28;;
72464;SDS011;60471;52.150;4.508;2023-04-24T01:23:53;8.05;;;2.20;;
72464;SDS011;60471;52.150;4.508;2023-04-24T01:26:21;13.15;;;2.60;;
72464;SDS011;60471;52.150;4.508;2023-04-24T01:28:48;11.35;;;2.15;;
72464;SDS011;60471;52.150;4.508;2023-04-24T01:31:15;11.73;;;2.47;;
72464;SDS011;60471;52.150;4.508;2023-04-24T01:33:41;9.55;;;2.28;;
72464;SDS011;60471;52.150;4.508;2023-04-24T01:36:09;11.95;;;2.38;;
72464;SDS011;60471;52.150;4.508;2023-04-24T01:38:37;9.88;;;2.33;;
72464;SDS011;60471;52.150;4.508;2023-04-24T01:41:03;11.48;;;2.90;;
72464;SDS011;60471;52.150;4.508;2023-04-24T01:43:31;10.80;;;2.70;;
72464;SDS011;60471;52.150;4.508;2023-04-24T01:45:57;15.68;;;2.33;;
72464;SDS011;60471;52.150;4.508;2023-04-24T01:48:24;8.70;;;2.53;;
72464;SDS011;60471;52.150;4.508;2023-04-24T01:50:50;9.02;;;2.28;;
72464;SDS011;60471;52.150;4.508;2023-04-24T01:53:16;10.50;;;2.83;;
72464;SDS011;60471;52.150;4.508;2023-04-24T01:55:42;11.60;;;2.78;;
72464;SDS011;60471;52.150;4.508;2023-04-24T01:58:09;8.52;;;2.20;;
72464;SDS011;60471;52.150;4.508;2023-04-24T02:00:35;7.43;;;2.42;;
72464;SDS011;60471;52.150;4.508;2023-04-24T02:03:01;8.38;;;2.17;;
72464;SDS011;60471;52.150;4.508;2023-04-24T02:05:28;8.25;;;1.98;;
72464;SDS011;60471;52.150;4.508;2023-04-24T02:07:57;11.27;;;2.00;;
72464;SDS011;60471;52.150;4.508;2023-04-24T02:10:23;9.65;;;2.10;;
72464;SDS011;60471;52.150;4.508;2023-04-24T02:12:50;15.40;;;3.17;;
72464;SDS011;60471;52.150;4.508;2023-04-24T02:15:17;9.50;;;3.08;;
72464;SDS011;60471;52.150;4.508;2023-04-24T02:17:43;8.43;;;2.80;;
72464;SDS011;60471;52.150;4.508;2023-04-24T02:20:09;9.52;;;2.95;;
72464;SDS011;60471;52.150;4.508;2023-04-24T02:22:36;10.60;;;2.47;;
72464;SDS011;60471;52.150;4.508;2023-04-24T02:25:02;9.35;;;2.38;;
72464;SDS011;60471;52.150;4.508;2023-04-24T02:27:29;12.63;;;2.65;;
72464;SDS011;60471;52.150;4.508;2023-04-24T02:29:55;9.30;;;2.45;;
72464;SDS011;60471;52.150;4.508;2023-04-24T02:32:22;10.32;;;2.15;;
72464;SDS011;60471;52.150;4.508;2023-04-24T02:34:48;5.90;;;1.92;;
72464;SDS011;60471;52.150;4.508;2023-04-24T02:37:14;9.52;;;2.65;;
72464;SDS011;60471;52.150;4.508;2023-04-24T02:39:40;11.70;;;2.70;;
72464;SDS011;60471;52.150;4.508;2023-04-24T02:42:06;8.07;;;2.60;;
72464;SDS011;60471;52.150;4.508;2023-04-24T02:44:33;11.02;;;3.10;;
72464;SDS011;60471;52.150;4.508;2023-04-24T02:46:59;10.85;;;3.05;;
72464;SDS011;60471;52.150;4.508;2023-04-24T02:49:26;17.27;;;3.47;;
72464;SDS011;60471;52.150;4.508;2023-04-24T02:51:52;14.77;;;3.00;;
72464;SDS011;60471;52.150;4.508;2023-04-24T02:54:18;11.68;;;2.80;;
72464;SDS011;60471;52.150;4.508;2023-04-24T02:56:45;10.75;;;3.00;;
72464;SDS011;60471;52.150;4.508;2023-04-24T02:59:11;9.73;;;3.40;;
72464;SDS011;60471;52.150;4.508;2023-04-24T03:01:37;15.00;;;3.13;;
72464;SDS011;60471;52.150;4.508;2023-04-24T03:04:03;9.98;;;3.00;;
72464;SDS011;60471;52.150;4.508;2023-04-24T03:06:29;12.00;;;3.38;;
72464;SDS011;60471;52.150;4.508;2023-04-24T03:08:58;11.40;;;3.40;;
72464;SDS011;60471;52.150;4.508;2023-04-24T03:11:24;11.23;;;3.60;;
72464;SDS011;60471;52.150;4.508;2023-04-24T03:13:50;12.02;;;3.90;;
72464;SDS011;60471;52.150;4.508;2023-04-24T03:16:17;11.00;;;3.10;;
72464;SDS011;60471;52.150;4.508;2023-04-24T03:18:43;14.27;;;3.70;;
72464;SDS011;60471;52.150;4.508;2023-04-24T03:21:09;10.10;;;3.58;;
72464;SDS011;60471;52.150;4.508;2023-04-24T03:23:35;10.45;;;3.65;;
72464;SDS011;60471;52.150;4.508;2023-04-24T03:26:01;9.52;;;3.70;;
72464;SDS011;60471;52.150;4.508;2023-04-24T03:28:28;9.43;;;3.55;;
72464;SDS011;60471;52.150;4.508;2023-04-24T03:30:54;9.07;;;4.00;;
72464;SDS011;60471;52.150;4.508;2023-04-24T03:33:20;10.10;;;2.28;;
72464;SDS011;60471;52.150;4.508;2023-04-24T03:35:46;8.95;;;1.60;;
72464;SDS011;60471;52.150;4.508;2023-04-24T03:38:13;7.13;;;1.50;;
72464;SDS011;60471;52.150;4.508;2023-04-24T03:40:39;6.93;;;1.30;;
72464;SDS011;60471;52.150;4.508;2023-04-24T03:43:05;8.25;;;1.40;;
72464;SDS011;60471;52.150;4.508;2023-04-24T03:45:31;6.30;;;1.30;;
72464;SDS011;60471;52.150;4.508;2023-04-24T03:47:57;4.80;;;1.00;;
72464;SDS011;60471;52.150;4.508;2023-04-24T03:50:24;3.55;;;0.98;;
72464;SDS011;60471;52.150;4.508;2023-04-24T03:52:52;5.63;;;1.00;;
72464;SDS011;60471;52.150;4.508;2023-04-24T03:55:18;5.43;;;1.10;;
72464;SDS011;60471;52.150;4.508;2023-04-24T03:57:44;5.10;;;1.27;;
72464;SDS011;60471;52.150;4.508;2023-04-24T04:00:10;3.70;;;1.00;;
72464;SDS011;60471;52.150;4.508;2023-04-24T04:02:37;6.47;;;0.93;;
72464;SDS011;60471;52.150;4.508;2023-04-24T04:05:04;3.63;;;1.05;;
72464;SDS011;60471;52.150;4.508;2023-04-24T04:07:30;4.43;;;1.17;;
72464;SDS011;60471;52.150;4.508;2023-04-24T04:09:56;6.43;;;1.08;;
72464;SDS011;60471;52.150;4.508;2023-04-24T04:12:23;3.08;;;1.00;;
72464;SDS011;60471;52.150;4.508;2023-04-24T04:14:49;4.25;;;0.90;;
72464;SDS011;60471;52.150;4.508;2023-04-24T04:17:15;5.90;;;1.10;;
72464;SDS011;60471;52.150;4.508;2023-04-24T04:19:41;5.28;;;1.30;;
72464;SDS011;60471;52.150;4.508;2023-04-24T04:22:07;4.53;;;0.93;;
72464;SDS011;60471;52.150;4.508;2023-04-24T04:24:34;6.75;;;1.38;;
72464;SDS011;60471;52.150;4.508;2023-04-24T04:27:04;6.80;;;1.50;;
72464;SDS011;60471;52.150;4.508;2023-04-24T04:29:31;7.32;;;1.90;;
72464;SDS011;60471;52.150;4.508;2023-04-24T04:31:58;13.43;;;3.22;;
72464;SDS011;60471;52.150;4.508;2023-04-24T04:34:24;15.77;;;3.95;;
72464;SDS011;60471;52.150;4.508;2023-04-24T04:36:50;17.10;;;3.90;;
72464;SDS011;60471;52.150;4.508;2023-04-24T04:39:17;22.23;;;5.07;;
72464;SDS011;60471;52.150;4.508;2023-04-24T04:41:44;18.88;;;5.32;;
72464;SDS011;60471;52.150;4.508;2023-04-24T04:44:12;18.00;;;6.07;;
72464;SDS011;60471;52.150;4.508;2023-04-24T04:46:39;17.35;;;6.05;;
72464;SDS011;60471;52.150;4.508;2023-04-24T04:49:07;22.80;;;6.72;;
72464;SDS011;60471;52.150;4.508;2023-04-24T04:51:34;21.48;;;6.63;;
72464;SDS011;60471;52.150;4.508;2023-04-24T04:54:00;19.90;;;8.05;;
72464;SDS011;60471;52.150;4.508;2023-04-24T04:56:26;24.02;;;6.65;;
72464;SDS011;60471;52.150;4.508;2023-04-24T04:58:53;20.98;;;5.60;;
72464;SDS011;60471;52.150;4.508;2023-04-24T05:01:19;22.80;;;6.97;;
72464;SDS011;60471;52.150;4.508;2023-04-24T05:03:45;23.52;;;7.50;;
72464;SDS011;60471;52.150;4.508;2023-04-24T05:06:11;30.63;;;12.38;;
72464;SDS011;60471;52.150;4.508;2023-04-24T05:08:38;29.27;;;10.73;;
72464;SDS011;60471;52.150;4.508;2023-04-24T05:11:04;25.55;;;11.95;;
72464;SDS011;60471;52.150;4.508;2023-04-24T05:13:31;36.33;;;14.15;;
72464;SDS011;60471;52.150;4.508;2023-04-24T05:15:57;28.42;;;13.85;;
72464;SDS011;60471;52.150;4.508;2023-04-24T05:18:24;37.45;;;15.18;;
72464;SDS011;60471;52.150;4.508;2023-04-24T05:20:50;28.00;;;14.30;;
72464;SDS011;60471;52.150;4.508;2023-04-24T05:23:16;32.45;;;15.32;;
72464;SDS011;60471;52.150;4.508;2023-04-24T05:25:42;30.95;;;17.40;;
72464;SDS011;60471;52.150;4.508;2023-04-24T05:28:09;31.05;;;13.43;;
72464;SDS011;60471;52.150;4.508;2023-04-24T05:30:35;26.92;;;12.25;;
72464;SDS011;60471;52.150;4.508;2023-04-24T05:33:02;26.27;;;11.23;;
72464;SDS011;60471;52.150;4.508;2023-04-24T05:35:28;32.28;;;10.60;;
72464;SDS011;60471;52.150;4.508;2023-04-24T05:37:54;30.65;;;9.98;;
72464;SDS011;60471;52.150;4.508;2023-04-24T05:40:20;23.20;;;9.57;;
72464;SDS011;60471;52.150;4.508;2023-04-24T05:42:47;27.58;;;10.30;;
72464;SDS011;60471;52.150;4.508;2023-04-24T05:45:13;21.50;;;10.40;;
72464;SDS011;60471;52.150;4.508;2023-04-24T05:47:42;28.35;;;10.82;;
72464;SDS011;60471;52.150;4.508;2023-04-24T05:50:10;25.42;;;11.50;;
72464;SDS011;60471;52.150;4.508;2023-04-24T05:52:37;31.52;;;13.57;;
72464;SDS011;60471;52.150;4.508;2023-04-24T05:55:03;26.88;;;9.68;;
72464;SDS011;60471;52.150;4.508;2023-04-24T05:57:30;26.10;;;10.50;;
72464;SDS011;60471;52.150;4.508;2023-04-24T05:59:57;29.95;;;9.52;;
72464;SDS011;60471;52.150;4.508;2023-04-24T06:02:23;22.35;;;9.45;;
72464;SDS011;60471;52.150;4.508;2023-04-24T06:04:49;28.40;;;7.75;;
72464;SDS011;60471;52.150;4.508;2023-04-24T06:07:15;33.08;;;8.13;;
72464;SDS011;60471;52.150;4.508;2023-04-24T06:09:42;32.15;;;7.15;;
72464;SDS011;60471;52.150;4.508;2023-04-24T06:12:08;25.92;;;6.82;;
72464;SDS011;60471;52.150;4.508;2023-04-24T06:14:34;29.25;;;7.63;;
72464;SDS011;60471;52.150;4.508;2023-04-24T06:17:00;35.00;;;7.38;;
72464;SDS011;60471;52.150;4.508;2023-04-24T06:19:27;32.25;;;7.05;;
72464;SDS011;60471;52.150;4.508;2023-04-24T06:21:53;29.48;;;7.30;;
72464;SDS011;60471;52.150;4.508;2023-04-24T06:24:19;20.80;;;6.40;;
72464;SDS011;60471;52.150;4.508;2023-04-24T06:26:45;25.05;;;6.65;;
72464;SDS011;60471;52.150;4.508;2023-04-24T06:29:12;32.15;;;7.28;;
72464;SDS011;60471;52.150;4.508;2023-04-24T06:31:38;23.35;;;6.07;;
72464;SDS011;60471;52.150;4.508;2023-04-24T06:34:04;28.77;;;7.15;;
72464;SDS011;60471;52.150;4.508;2023-04-24T06:36:31;25.00;;;6.47;;
72464;SDS011;60471;52.150;4.508;2023-04-24T06:38:58;25.60;;;8.35;;
72464;SDS011;60471;52.150;4.508;2023-04-24T06:41:24;22.52;;;5.53;;
72464;SDS011;60471;52.150;4.508;2023-04-24T06:43:50;32.97;;;7.10;;
72464;SDS011;60471;52.150;4.508;2023-04-24T06:46:16;34.88;;;6.50;;
72464;SDS011;60471;52.150;4.508;2023-04-24T06:48:43;30.35;;;6.53;;
72464;SDS011;60471;52.150;4.508;2023-04-24T06:51:09;29.02;;;6.30;;
72464;SDS011;60471;52.150;4.508;2023-04-24T06:53:35;27.20;;;5.50;;
72464;SDS011;60471;52.150;4.508;2023-04-24T06:56:02;29.52;;;5.85;;
72464;SDS011;60471;52.150;4.508;2023-04-24T06:58:28;25.98;;;6.00;;
72464;SDS011;60471;52.150;4.508;2023-04-24T07:00:56;27.98;;;5.47;;
72464;SDS011;60471;52.150;4.508;2023-04-24T07:03:22;32.78;;;5.53;;
72464;SDS011;60471;52.150;4.508;2023-04-24T07:05:48;30.60;;;6.50;;
72464;SDS011;60471;52.150;4.508;2023-04-24T07:08:15;39.17;;;6.85;;
72464;SDS011;60471;52.150;4.508;2023-04-24T07:10:43;39.75;;;14.50;;
72464;SDS011;60471;52.150;4.508;2023-04-24T07:13:10;28.20;;;5.50;;
72464;SDS011;60471;52.150;4.508;2023-04-24T07:15:36;24.77;;;4.85;;
72464;SDS011;60471;52.150;4.508;2023-04-24T07:18:03;24.65;;;4.68;;
72464;SDS011;60471;52.150;4.508;2023-04-24T07:20:29;33.70;;;5.10;;
72464;SDS011;60471;52.150;4.508;2023-04-24T07:22:55;25.45;;;4.68;;
72464;SDS011;60471;52.150;4.508;2023-04-24T07:25:22;22.20;;;4.97;;
72464;SDS011;60471;52.150;4.508;2023-04-24T07:27:48;20.00;;;3.80;;
72464;SDS011;60471;52.150;4.508;2023-04-24T07:30:14;27.17;;;4.20;;
72464;SDS011;60471;52.150;4.508;2023-04-24T07:32:41;23.83;;;4.10;;
72464;SDS011;60471;52.150;4.508;2023-04-24T07:35:07;23.33;;;4.57;;
72464;SDS011;60471;52.150;4.508;2023-04-24T07:37:35;21.20;;;3.70;;
72464;SDS011;60471;52.150;4.508;2023-04-24T07:40:02;22.05;;;4.43;;
72464;SDS011;60471;52.150;4.508;2023-04-24T07:42:29;19.58;;;3.67;;
72464;SDS011;60471;52.150;4.508;2023-04-24T07:44:56;22.63;;;3.70;;
72464;SDS011;60471;52.150;4.508;2023-04-24T07:47:22;22.73;;;3.67;;
72464;SDS011;60471;52.150;4.508;2023-04-24T07:49:49;23.95;;;3.85;;
72464;SDS011;60471;52.150;4.508;2023-04-24T07:52:15;22.42;;;4.00;;
72464;SDS011;60471;52.150;4.508;2023-04-24T07:54:41;24.48;;;4.88;;
72464;SDS011;60471;52.150;4.508;2023-04-24T07:57:08;20.58;;;4.07;;
72464;SDS011;60471;52.150;4.508;2023-04-24T07:59:34;24.40;;;4.50;;
72464;SDS011;60471;52.150;4.508;2023-04-24T08:02:01;17.45;;;3.65;;
72464;SDS011;60471;52.150;4.508;2023-04-24T08:04:27;23.23;;;4.07;;
72464;SDS011;60471;52.150;4.508;2023-04-24T08:06:53;23.02;;;3.55;;
72464;SDS011;60471;52.150;4.508;2023-04-24T08:09:20;21.73;;;4.28;;
72464;SDS011;60471;52.150;4.508;2023-04-24T08:11:46;16.00;;;3.50;;
72464;SDS011;60471;52.150;4.508;2023-04-24T08:14:12;16.55;;;3.38;;
72464;SDS011;60471;52.150;4.508;2023-04-24T08:16:39;15.05;;;3.25;;
72464;SDS011;60471;52.150;4.508;2023-04-24T08:19:05;18.85;;;4.07;;
72464;SDS011;60471;52.150;4.508;2023-04-24T08:21:31;24.20;;;3.47;;
72464;SDS011;60471;52.150;4.508;2023-04-24T08:23:58;18.75;;;3.95;;
72464;SDS011;60471;52.150;4.508;2023-04-24T08:26:24;18.30;;;3.72;;
72464;SDS011;60471;52.150;4.508;2023-04-24T08:28:50;16.35;;;3.38;;
72464;SDS011;60471;52.150;4.508;2023-04-24T08:31:16;19.95;;;3.33;;
72464;SDS011;60471;52.150;4.508;2023-04-24T08:33:42;16.60;;;3.08;;
72464;SDS011;60471;52.150;4.508;2023-04-24T08:36:10;14.02;;;2.65;;
72464;SDS011;60471;52.150;4.508;2023-04-24T08:38:36;16.48;;;2.80;;
72464;SDS011;60471;52.150;4.508;2023-04-24T08:41:03;12.93;;;2.88;;
72464;SDS011;60471;52.150;4.508;2023-04-24T08:43:30;11.88;;;3.05;;
72464;SDS011;60471;52.150;4.508;2023-04-24T08:46:03;18.03;;;2.90;;
72464;SDS011;60471;52.150;4.508;2023-04-24T08:48:30;15.05;;;2.60;;
72464;SDS011;60471;52.150;4.508;2023-04-24T08:50:58;13.85;;;2.30;;
72464;SDS011;60471;52.150;4.508;2023-04-24T08:53:25;10.82;;;2.30;;
72464;SDS011;60471;52.150;4.508;2023-04-24T08:55:52;12.90;;;2.35;;
72464;SDS011;60471;52.150;4.508;2023-04-24T08:58:22;16.92;;;2.75;;
72464;SDS011;60471;52.150;4.508;2023-04-24T09:00:54;17.50;;;2.60;;
72464;SDS011;60471;52.150;4.508;2023-04-24T09:03:21;13.55;;;2.40;;
72464;SDS011;60471;52.150;4.508;2023-04-24T09:05:48;12.57;;;2.25;;
72464;SDS011;60471;52.150;4.508;2023-04-24T09:08:16;11.82;;;2.60;;
72464;SDS011;60471;52.150;4.508;2023-04-24T09:10:44;13.50;;;2.25;;
72464;SDS011;60471;52.150;4.508;2023-04-24T09:13:11;12.07;;;2.50;;
72464;SDS011;60471;52.150;4.508;2023-04-24T09:15:37;8.05;;;2.08;;
72464;SDS011;60471;52.150;4.508;2023-04-24T09:18:05;10.65;;;1.77;;
72464;SDS011;60471;52.150;4.508;2023-04-24T09:20:32;9.35;;;1.73;;
72464;SDS011;60471;52.150;4.508;2023-04-24T09:22:59;10.32;;;1.98;;
72464;SDS011;60471;52.150;4.508;2023-04-24T09:25:34;10.02;;;1.80;;
72464;SDS011;60471;52.150;4.508;2023-04-24T09:28:02;10.07;;;1.45;;
72464;SDS011;60471;52.150;4.508;2023-04-24T09:30:32;8.90;;;1.70;;
72464;SDS011;60471;52.150;4.508;2023-04-24T09:33:20;9.93;;;1.60;;
72464;SDS011;60471;52.150;4.508;2023-04-24T09:35:51;9.68;;;1.63;;
72464;SDS011;60471;52.150;4.508;2023-04-24T09:38:17;11.15;;;1.60;;
72464;SDS011;60471;52.150;4.508;2023-04-24T09:40:44;8.20;;;1.50;;
72464;SDS011;60471;52.150;4.508;2023-04-24T09:43:10;10.85;;;1.80;;
72464;SDS011;60471;52.150;4.508;2023-04-24T09:45:38;12.10;;;2.70;;
72464;SDS011;60471;52.150;4.508;2023-04-24T09:48:08;14.65;;;2.28;;
72464;SDS011;60471;52.150;4.508;2023-04-24T09:50:36;11.88;;;1.90;;
72464;SDS011;60471;52.150;4.508;2023-04-24T09:53:03;18.10;;;2.22;;
72464;SDS011;60471;52.150;4.508;2023-04-24T09:55:31;27.27;;;12.10;;
72464;SDS011;60471;52.150;4.508;2023-04-24T09:57:58;10.65;;;2.00;;
72464;SDS011;60471;52.150;4.508;2023-04-24T10:00:26;13.15;;;2.17;;
72464;SDS011;60471;52.150;4.508;2023-04-24T10:03:02;16.20;;;2.58;;
72464;SDS011;60471;52.150;4.508;2023-04-24T10:05:35;8.20;;;1.60;;
72464;SDS011;60471;52.150;4.508;2023-04-24T10:10:38;8.60;;;1.50;;
72464;SDS011;60471;52.150;4.508;2023-04-24T10:13:07;30.05;;;17.80;;
72464;SDS011;60471;52.150;4.508;2023-04-24T10:15:39;12.55;;;2.00;;
72464;SDS011;60471;52.150;4.508;2023-04-24T10:18:07;13.27;;;2.00;;
72464;SDS011;60471;52.150;4.508;2023-04-24T10:20:36;9.50;;;1.50;;
72464;SDS011;60471;52.150;4.508;2023-04-24T10:23:05;9.25;;;1.80;;
72464;SDS011;60471;52.150;4.508;2023-04-24T10:25:32;12.52;;;1.92;;
72464;SDS011;60471;52.150;4.508;2023-04-24T10:28:01;9.63;;;1.83;;
72464;SDS011;60471;52.150;4.508;2023-04-24T10:30:32;15.20;;;2.60;;
72464;SDS011;60471;52.150;4.508;2023-04-24T10:33:01;13.40;;;2.28;;
72464;SDS011;60471;52.150;4.508;2023-04-24T10:35:30;16.90;;;2.47;;
72464;SDS011;60471;52.150;4.508;2023-04-24T10:38:11;15.63;;;3.22;;
72464;SDS011;60471;52.150;4.508;2023-04-24T10:40:41;15.10;;;2.75;;
72464;SDS011;60471;52.150;4.508;2023-04-24T10:43:09;14.35;;;2.53;;
72464;SDS011;60471;52.150;4.508;2023-04-24T10:45:37;13.30;;;2.00;;
72464;SDS011;60471;52.150;4.508;2023-04-24T10:48:05;14.75;;;2.65;;
72464;SDS011;60471;52.150;4.508;2023-04-24T10:50:43;11.90;;;2.40;;
72464;SDS011;60471;52.150;4.508;2023-04-24T10:53:19;12.90;;;2.40;;
72464;SDS011;60471;52.150;4.508;2023-04-24T10:55:59;13.50;;;2.60;;
72464;SDS011;60471;52.150;4.508;2023-04-24T10:58:41;15.55;;;2.58;;
72464;SDS011;60471;52.150;4.508;2023-04-24T11:01:28;16.20;;;2.75;;
72464;SDS011;60471;52.150;4.508;2023-04-24T11:03:57;14.73;;;2.03;;
72464;SDS011;60471;52.150;4.508;2023-04-24T11:09:04;9.93;;;1.90;;
72464;SDS011;60471;52.150;4.508;2023-04-24T11:11:37;15.50;;;2.45;;
72464;SDS011;60471;52.150;4.508;2023-04-24T11:14:10;18.13;;;2.53;;
72464;SDS011;60471;52.150;4.508;2023-04-24T11:16:51;11.73;;;2.67;;
72464;SDS011;60471;52.150;4.508;2023-04-24T11:19:21;14.52;;;2.38;;
72464;SDS011;60471;52.150;4.508;2023-04-24T11:22:13;13.63;;;2.88;;
72464;SDS011;60471;52.150;4.508;2023-04-24T11:29:43;14.57;;;3.13;;
72464;SDS011;60471;52.150;4.508;2023-04-24T11:32:19;18.58;;;3.13;;
72464;SDS011;60471;52.150;4.508;2023-04-24T11:34:56;16.17;;;2.92;;
72464;SDS011;60471;52.150;4.508;2023-04-24T11:37:33;16.30;;;3.10;;
72464;SDS011;60471;52.150;4.508;2023-04-24T11:40:02;14.85;;;3.22;;
72464;SDS011;60471;52.150;4.508;2023-04-24T11:42:37;14.60;;;2.78;;
72464;SDS011;60471;52.150;4.508;2023-04-24T11:45:15;14.88;;;2.95;;
72464;SDS011;60471;52.150;4.508;2023-04-24T11:47:44;18.80;;;3.70;;
72464;SDS011;60471;52.150;4.508;2023-04-24T11:50:12;16.42;;;3.55;;
72464;SDS011;60471;52.150;4.508;2023-04-24T11:52:41;18.20;;;3.78;;
72464;SDS011;60471;52.150;4.508;2023-04-24T11:57:43;20.48;;;3.40;;
72464;SDS011;60471;52.150;4.508;2023-04-24T12:00:18;29.13;;;4.57;;
72464;SDS011;60471;52.150;4.508;2023-04-24T12:02:51;21.33;;;4.28;;
72464;SDS011;60471;52.150;4.508;2023-04-24T12:05:28;26.13;;;4.43;;
72464;SDS011;60471;52.150;4.508;2023-04-24T12:07:57;24.55;;;3.92;;
72464;SDS011;60471;52.150;4.508;2023-04-24T12:10:24;17.77;;;3.70;;
72464;SDS011;60471;52.150;4.508;2023-04-24T12:12:54;22.30;;;4.88;;
72464;SDS011;60471;52.150;4.508;2023-04-24T12:15:23;23.63;;;4.40;;
72464;SDS011;60471;52.150;4.508;2023-04-24T12:17:50;23.52;;;4.60;;
72464;SDS011;60471;52.150;4.508;2023-04-24T12:20:23;23.38;;;4.10;;
72464;SDS011;60471;52.150;4.508;2023-04-24T12:22:53;20.42;;;4.45;;
72464;SDS011;60471;52.150;4.508;2023-04-24T12:25:22;18.50;;;4.38;;
72464;SDS011;60471;52.150;4.508;2023-04-24T12:27:52;23.67;;;4.43;;
72464;SDS011;60471;52.150;4.508;2023-04-24T12:30:43;17.83;;;4.47;;
72464;SDS011;60471;52.150;4.508;2023-04-24T12:33:17;18.13;;;4.05;;
72464;SDS011;60471;52.150;4.508;2023-04-24T12:35:45;20.50;;;4.30;;
72464;SDS011;60471;52.150;4.508;2023-04-24T12:38:12;19.98;;;4.85;;
72464;SDS011;60471;52.150;4.508;2023-04-24T12:40:40;18.23;;;4.07;;
72464;SDS011;60471;52.150;4.508;2023-04-24T12:43:15;23.83;;;4.57;;
72464;SDS011;60471;52.150;4.508;2023-04-24T12:45:43;22.33;;;4.22;;
72464;SDS011;60471;52.150;4.508;2023-04-24T12:48:13;27.45;;;5.68;;
72464;SDS011;60471;52.150;4.508;2023-04-24T12:50:42;19.45;;;3.97;;
72464;SDS011;60471;52.150;4.508;2023-04-24T12:53:09;21.67;;;4.50;;
72464;SDS011;60471;52.150;4.508;2023-04-24T12:55:36;19.02;;;4.45;;
72464;SDS011;60471;52.150;4.508;2023-04-24T12:58:03;23.17;;;4.55;;
72464;SDS011;60471;52.150;4.508;2023-04-24T13:00:29;21.98;;;3.97;;
72464;SDS011;60471;52.150;4.508;2023-04-24T13:02:55;21.20;;;4.10;;
72464;SDS011;60471;52.150;4.508;2023-04-24T13:05:21;21.80;;;4.47;;
72464;SDS011;60471;52.150;4.508;2023-04-24T13:07:48;18.27;;;4.43;;
72464;SDS011;60471;52.150;4.508;2023-04-24T13:10:14;23.45;;;4.10;;
72464;SDS011;60471;52.150;4.508;2023-04-24T13:12:40;22.40;;;4.30;;
72464;SDS011;60471;52.150;4.508;2023-04-24T13:15:07;23.20;;;4.60;;
72464;SDS011;60471;52.150;4.508;2023-04-24T13:17:33;19.35;;;4.10;;
72464;SDS011;60471;52.150;4.508;2023-04-24T13:20:00;19.60;;;3.75;;
72464;SDS011;60471;52.150;4.508;2023-04-24T13:22:26;20.38;;;4.88;;
72464;SDS011;60471;52.150;4.508;2023-04-24T13:24:52;16.77;;;4.00;;
72464;SDS011;60471;52.150;4.508;2023-04-24T13:27:19;16.55;;;3.65;;
72464;SDS011;60471;52.150;4.508;2023-04-24T13:29:45;24.73;;;4.55;;
72464;SDS011;60471;52.150;4.508;2023-04-24T13:32:11;20.88;;;5.03;;
72464;SDS011;60471;52.150;4.508;2023-04-24T13:34:38;20.08;;;4.93;;
72464;SDS011;60471;52.150;4.508;2023-04-24T13:37:04;21.27;;;5.45;;
72464;SDS011;60471;52.150;4.508;2023-04-24T13:39:31;20.55;;;5.05;;
72464;SDS011;60471;52.150;4.508;2023-04-24T13:41:58;25.63;;;5.03;;
72464;SDS011;60471;52.150;4.508;2023-04-24T13:44:25;24.50;;;5.35;;
72464;SDS011;60471;52.150;4.508;2023-04-24T13:46:52;22.00;;;5.45;;
72464;SDS011;60471;52.150;4.508;2023-04-24T13:49:22;22.80;;;4.97;;
72464;SDS011;60471;52.150;4.508;2023-04-24T13:51:51;21.08;;;5.22;;
72464;SDS011;60471;52.150;4.508;2023-04-24T13:54:19;25.60;;;8.82;;
72464;SDS011;60471;52.150;4.508;2023-04-24T13:56:45;20.80;;;4.35;;
72464;SDS011;60471;52.150;4.508;2023-04-24T13:59:14;21.73;;;4.55;;
72464;SDS011;60471;52.150;4.508;2023-04-24T14:01:41;22.80;;;4.50;;
72464;SDS011;60471;52.150;4.508;2023-04-24T14:04:07;19.05;;;4.25;;
72464;SDS011;60471;52.150;4.508;2023-04-24T14:06:33;17.83;;;4.32;;
72464;SDS011;60471;52.150;4.508;2023-04-24T14:08:59;22.05;;;4.53;;
72464;SDS011;60471;52.150;4.508;2023-04-24T14:11:26;21.33;;;4.60;;
72464;SDS011;60471;52.150;4.508;2023-04-24T14:13:53;20.00;;;4.68;;
72464;SDS011;60471;52.150;4.508;2023-04-24T14:16:22;18.92;;;4.93;;
72464;SDS011;60471;52.150;4.508;2023-04-24T14:18:48;22.27;;;4.38;;
72464;SDS011;60471;52.150;4.508;2023-04-24T14:21:14;21.52;;;4.35;;
72464;SDS011;60471;52.150;4.508;2023-04-24T14:23:41;20.92;;;4.60;;
72464;SDS011;60471;52.150;4.508;2023-04-24T14:26:07;22.05;;;4.75;;
72464;SDS011;60471;52.150;4.508;2023-04-24T14:28:33;26.55;;;5.25;;
72464;SDS011;60471;52.150;4.508;2023-04-24T14:31:00;32.33;;;6.75;;
72464;SDS011;60471;52.150;4.508;2023-04-24T14:33:26;30.80;;;6.30;;
72464;SDS011;60471;52.150;4.508;2023-04-24T14:35:52;28.83;;;5.30;;
72464;SDS011;60471;52.150;4.508;2023-04-24T14:38:18;23.65;;;5.63;;
72464;SDS011;60471;52.150;4.508;2023-04-24T14:40:45;22.42;;;5.07;;
72464;SDS011;60471;52.150;4.508;2023-04-24T14:43:11;21.02;;;5.07;;
72464;SDS011;60471;52.150;4.508;2023-04-24T14:45:37;21.83;;;5.03;;
72464;SDS011;60471;52.150;4.508;2023-04-24T14:48:03;25.00;;;6.05;;
72464;SDS011;60471;52.150;4.508;2023-04-24T14:50:30;21.35;;;7.10;;